sensor_id;sensor_type;location;lat;lon;timestamp;temperature;humidity
42245;DHT22;27912;51.828;5.688;2024-03-23T00:55:51;7.00;99.90
42245;DHT22;27912;51.828;5.688;2024-03-23T00:58:17;7.00;99.90
42245;DHT22;27912;51.828;5.688;2024-03-23T01:00:42;7.00;99.90
42245;DHT22;27912;51.828;5.688;2024-03-23T01:03:08;7.00;99.90
42245;DHT22;27912;51.828;5.688;2024-03-23T01:05:33;7.00;99.90
42245;DHT22;27912;51.828;5.688;2024-03-23T01:07:59;7.00;99.90
42245;DHT22;27912;51.828;5.688;2024-03-23T01:10:24;7.00;99.90
42245;DHT22;27912;51.828;5.688;2024-03-23T01:12:50;7.00;99.90
42245;DHT22;27912;51.828;5.688;2024-03-23T01:15:16;7.00;99.90
42245;DHT22;27912;51.828;5.688;2024-03-23T01:17:41;7.00;99.90
42245;DHT22;27912;51.828;5.688;2024-03-23T01:20:07;7.00;99.90
42245;DHT22;27912;51.828;5.688;2024-03-23T01:22:33;7.00;99.90
42245;DHT22;27912;51.828;5.688;2024-03-23T01:24:58;7.00;99.90
42245;DHT22;27912;51.828;5.688;2024-03-23T01:27:24;7.00;99.90
42245;DHT22;27912;51.828;5.688;2024-03-23T01:29:50;7.00;99.90
42245;DHT22;27912;51.828;5.688;2024-03-23T01:32:18;7.00;99.90
42245;DHT22;27912;51.828;5.688;2024-03-23T01:34:44;7.00;99.90
42245;DHT22;27912;51.828;5.688;2024-03-23T01:37:09;7.00;99.90
42245;DHT22;27912;51.828;5.688;2024-03-23T01:39:35;7.00;99.90
42245;DHT22;27912;51.828;5.688;2024-03-23T01:42:01;7.00;99.90
42245;DHT22;27912;51.828;5.688;2024-03-23T01:44:26;7.00;99.90
42245;DHT22;27912;51.828;5.688;2024-03-23T01:46:52;7.00;99.90
42245;DHT22;27912;51.828;5.688;2024-03-23T01:49:17;7.00;99.90
42245;DHT22;27912;51.828;5.688;2024-03-23T01:51:43;7.00;99.90
42245;DHT22;27912;51.828;5.688;2024-03-23T01:54:10;7.00;99.90
42245;DHT22;27912;51.828;5.688;2024-03-23T01:56:36;7.00;99.90
42245;DHT22;27912;51.828;5.688;2024-03-23T01:59:03;7.00;99.90
42245;DHT22;27912;51.828;5.688;2024-03-23T02:01:28;7.00;99.90
42245;DHT22;27912;51.828;5.688;2024-03-23T02:03:54;7.00;99.90
42245;DHT22;27912;51.828;5.688;2024-03-23T02:06:19;7.00;99.90
42245;DHT22;27912;51.828;5.688;2024-03-23T02:08:45;7.00;99.90
42245;DHT22;27912;51.828;5.688;2024-03-23T02:11:10;7.00;99.90
42245;DHT22;27912;51.828;5.688;2024-03-23T02:13:36;7.00;99.90
42245;DHT22;27912;51.828;5.688;2024-03-23T02:16:02;7.00;99.90
42245;DHT22;27912;51.828;5.688;2024-03-23T02:18:27;7.00;99.90
42245;DHT22;27912;51.828;5.688;2024-03-23T02:20:53;7.00;99.90
42245;DHT22;27912;51.828;5.688;2024-03-23T02:23:19;7.00;99.90
42245;DHT22;27912;51.828;5.688;2024-03-23T02:25:45;6.90;99.90
42245;DHT22;27912;51.828;5.688;2024-03-23T02:28:11;7.00;99.90
42245;DHT22;27912;51.828;5.688;2024-03-23T02:30:37;6.90;99.90
42245;DHT22;27912;51.828;5.688;2024-03-23T02:33:03;7.00;99.90
42245;DHT22;27912;51.828;5.688;2024-03-23T02:35:29;7.00;99.90
42245;DHT22;27912;51.828;5.688;2024-03-23T02:37:55;7.00;99.90
42245;DHT22;27912;51.828;5.688;2024-03-23T02:40:23;6.90;99.90
42245;DHT22;27912;51.828;5.688;2024-03-23T02:42:48;6.90;99.90
42245;DHT22;27912;51.828;5.688;2024-03-23T02:45:14;6.90;99.90
42245;DHT22;27912;51.828;5.688;2024-03-23T02:47:40;7.00;99.90
42245;DHT22;27912;51.828;5.688;2024-03-23T02:50:06;6.90;99.90
42245;DHT22;27912;51.828;5.688;2024-03-23T02:52:31;6.90;99.90
42245;DHT22;27912;51.828;5.688;2024-03-23T02:54:57;6.90;99.90
42245;DHT22;27912;51.828;5.688;2024-03-23T02:57:23;6.90;99.90
42245;DHT22;27912;51.828;5.688;2024-03-23T02:59:48;6.90;99.90
42245;DHT22;27912;51.828;5.688;2024-03-23T03:02:15;6.90;99.90
42245;DHT22;27912;51.828;5.688;2024-03-23T03:04:41;6.90;99.90
42245;DHT22;27912;51.828;5.688;2024-03-23T03:07:06;6.90;99.90
42245;DHT22;27912;51.828;5.688;2024-03-23T03:09:32;6.80;99.90
42245;DHT22;27912;51.828;5.688;2024-03-23T03:11:58;6.80;99.90
42245;DHT22;27912;51.828;5.688;2024-03-23T03:14:24;6.80;99.90
42245;DHT22;27912;51.828;5.688;2024-03-23T03:16:49;6.80;99.90
42245;DHT22;27912;51.828;5.688;2024-03-23T03:19:15;6.80;99.90
42245;DHT22;27912;51.828;5.688;2024-03-23T03:21:42;6.70;99.90
42245;DHT22;27912;51.828;5.688;2024-03-23T03:24:07;6.60;99.90
42245;DHT22;27912;51.828;5.688;2024-03-23T03:26:33;6.60;99.90
42245;DHT22;27912;51.828;5.688;2024-03-23T03:28:58;6.60;99.90
42245;DHT22;27912;51.828;5.688;2024-03-23T03:31:24;6.60;99.90
42245;DHT22;27912;51.828;5.688;2024-03-23T03:33:50;6.60;99.90
42245;DHT22;27912;51.828;5.688;2024-03-23T03:36:18;6.60;99.90
42245;DHT22;27912;51.828;5.688;2024-03-23T03:38:45;6.50;99.90
42245;DHT22;27912;51.828;5.688;2024-03-23T03:41:11;6.50;99.90
42245;DHT22;27912;51.828;5.688;2024-03-23T03:43:36;6.50;99.90
42245;DHT22;27912;51.828;5.688;2024-03-23T03:46:02;6.50;99.90
42245;DHT22;27912;51.828;5.688;2024-03-23T03:48:28;6.50;99.90
42245;DHT22;27912;51.828;5.688;2024-03-23T03:50:54;6.50;99.90
42245;DHT22;27912;51.828;5.688;2024-03-23T03:53:20;6.40;99.90
42245;DHT22;27912;51.828;5.688;2024-03-23T03:55:45;6.40;99.90
42245;DHT22;27912;51.828;5.688;2024-03-23T03:58:11;6.40;99.90
42245;DHT22;27912;51.828;5.688;2024-03-23T04:00:37;6.30;99.90
42245;DHT22;27912;51.828;5.688;2024-03-23T04:03:02;6.30;99.90
42245;DHT22;27912;51.828;5.688;2024-03-23T04:05:28;6.30;99.90
42245;DHT22;27912;51.828;5.688;2024-03-23T04:07:54;6.20;99.90
42245;DHT22;27912;51.828;5.688;2024-03-23T04:10:20;6.20;99.90
42245;DHT22;27912;51.828;5.688;2024-03-23T04:12:46;6.10;99.90
42245;DHT22;27912;51.828;5.688;2024-03-23T04:15:12;6.10;99.90
42245;DHT22;27912;51.828;5.688;2024-03-23T04:17:39;6.00;99.90
42245;DHT22;27912;51.828;5.688;2024-03-23T04:20:05;5.90;99.90
42245;DHT22;27912;51.828;5.688;2024-03-23T04:22:34;5.90;99.90
42245;DHT22;27912;51.828;5.688;2024-03-23T04:25:00;5.90;99.90
42245;DHT22;27912;51.828;5.688;2024-03-23T04:27:34;5.80;99.90
42245;DHT22;27912;51.828;5.688;2024-03-23T04:30:01;5.80;99.90
42245;DHT22;27912;51.828;5.688;2024-03-23T04:32:27;5.70;99.90
42245;DHT22;27912;51.828;5.688;2024-03-23T04:34:53;5.60;99.90
42245;DHT22;27912;51.828;5.688;2024-03-23T04:37:20;5.60;99.90
42245;DHT22;27912;51.828;5.688;2024-03-23T04:39:45;5.50;99.90
42245;DHT22;27912;51.828;5.688;2024-03-23T04:42:11;5.50;99.90
42245;DHT22;27912;51.828;5.688;2024-03-23T04:44:37;5.50;99.90
42245;DHT22;27912;51.828;5.688;2024-03-23T04:47:03;5.40;99.90
42245;DHT22;27912;51.828;5.688;2024-03-23T04:49:29;5.40;99.90
42245;DHT22;27912;51.828;5.688;2024-03-23T04:51:54;5.30;99.90
42245;DHT22;27912;51.828;5.688;2024-03-23T04:54:20;5.30;99.90
42245;DHT22;27912;51.828;5.688;2024-03-23T04:56:45;5.30;99.90
42245;DHT22;27912;51.828;5.688;2024-03-23T04:59:11;5.20;99.90
42245;DHT22;27912;51.828;5.688;2024-03-23T05:01:37;5.20;99.90
42245;DHT22;27912;51.828;5.688;2024-03-23T05:04:04;5.20;99.90
42245;DHT22;27912;51.828;5.688;2024-03-23T05:06:30;5.20;99.90
42245;DHT22;27912;51.828;5.688;2024-03-23T05:08:56;5.10;99.90
42245;DHT22;27912;51.828;5.688;2024-03-23T05:11:22;5.10;99.90
42245;DHT22;27912;51.828;5.688;2024-03-23T05:13:47;5.00;99.90
42245;DHT22;27912;51.828;5.688;2024-03-23T05:16:14;5.00;99.90
42245;DHT22;27912;51.828;5.688;2024-03-23T05:18:39;5.00;99.90
42245;DHT22;27912;51.828;5.688;2024-03-23T05:21:05;5.00;99.90
42245;DHT22;27912;51.828;5.688;2024-03-23T05:23:30;4.90;99.90
42245;DHT22;27912;51.828;5.688;2024-03-23T05:25:56;4.90;99.90
42245;DHT22;27912;51.828;5.688;2024-03-23T05:28:22;4.90;99.90
42245;DHT22;27912;51.828;5.688;2024-03-23T05:30:52;4.90;99.90
42245;DHT22;27912;51.828;5.688;2024-03-23T05:33:19;4.80;99.90
42245;DHT22;27912;51.828;5.688;2024-03-23T05:35:45;4.80;99.90
42245;DHT22;27912;51.828;5.688;2024-03-23T05:38:10;4.80;99.90
42245;DHT22;27912;51.828;5.688;2024-03-23T05:40:36;4.80;99.90
42245;DHT22;27912;51.828;5.688;2024-03-23T05:43:04;4.80;99.90
42245;DHT22;27912;51.828;5.688;2024-03-23T05:45:30;4.80;99.90
42245;DHT22;27912;51.828;5.688;2024-03-23T05:47:55;4.90;99.90
42245;DHT22;27912;51.828;5.688;2024-03-23T05:50:22;5.00;99.90
42245;DHT22;27912;51.828;5.688;2024-03-23T05:52:49;5.00;99.90
42245;DHT22;27912;51.828;5.688;2024-03-23T05:55:15;5.00;99.90
42245;DHT22;27912;51.828;5.688;2024-03-23T05:57:41;5.10;99.90
42245;DHT22;27912;51.828;5.688;2024-03-23T06:00:06;5.10;99.90
42245;DHT22;27912;51.828;5.688;2024-03-23T06:02:41;5.10;99.90
42245;DHT22;27912;51.828;5.688;2024-03-23T06:05:07;5.20;99.90
42245;DHT22;27912;51.828;5.688;2024-03-23T06:07:33;5.20;99.90
42245;DHT22;27912;51.828;5.688;2024-03-23T06:09:58;5.20;99.90
42245;DHT22;27912;51.828;5.688;2024-03-23T06:12:24;5.20;99.90
42245;DHT22;27912;51.828;5.688;2024-03-23T06:14:49;5.20;99.90
42245;DHT22;27912;51.828;5.688;2024-03-23T06:17:15;5.20;99.90
42245;DHT22;27912;51.828;5.688;2024-03-23T06:19:41;5.20;99.90
42245;DHT22;27912;51.828;5.688;2024-03-23T06:22:06;5.30;99.90
42245;DHT22;27912;51.828;5.688;2024-03-23T06:24:32;5.40;99.90
42245;DHT22;27912;51.828;5.688;2024-03-23T06:26:57;5.60;99.90
42245;DHT22;27912;51.828;5.688;2024-03-23T06:29:23;5.70;99.90
42245;DHT22;27912;51.828;5.688;2024-03-23T06:31:54;5.80;99.90
42245;DHT22;27912;51.828;5.688;2024-03-23T06:34:20;5.80;99.90
42245;DHT22;27912;51.828;5.688;2024-03-23T06:36:47;5.80;99.90
42245;DHT22;27912;51.828;5.688;2024-03-23T06:39:12;5.80;99.90
42245;DHT22;27912;51.828;5.688;2024-03-23T06:41:51;5.80;99.90
42245;DHT22;27912;51.828;5.688;2024-03-23T06:44:16;5.90;99.90
42245;DHT22;27912;51.828;5.688;2024-03-23T06:46:43;6.00;99.90
42245;DHT22;27912;51.828;5.688;2024-03-23T06:49:08;6.10;99.90
42245;DHT22;27912;51.828;5.688;2024-03-23T06:51:34;6.20;99.90
42245;DHT22;27912;51.828;5.688;2024-03-23T06:53:59;6.40;99.90
42245;DHT22;27912;51.828;5.688;2024-03-23T06:56:25;6.50;99.90
42245;DHT22;27912;51.828;5.688;2024-03-23T06:58:50;6.60;99.90
42245;DHT22;27912;51.828;5.688;2024-03-23T07:01:16;6.70;99.90
42245;DHT22;27912;51.828;5.688;2024-03-23T07:03:42;6.70;99.90
42245;DHT22;27912;51.828;5.688;2024-03-23T07:06:09;6.80;99.90
42245;DHT22;27912;51.828;5.688;2024-03-23T07:08:35;6.90;99.90
42245;DHT22;27912;51.828;5.688;2024-03-23T07:11:01;6.90;99.90
42245;DHT22;27912;51.828;5.688;2024-03-23T07:13:28;6.80;99.90
42245;DHT22;27912;51.828;5.688;2024-03-23T07:15:54;6.80;99.90
42245;DHT22;27912;51.828;5.688;2024-03-23T07:18:21;6.70;99.90
42245;DHT22;27912;51.828;5.688;2024-03-23T07:20:57;6.60;99.90
42245;DHT22;27912;51.828;5.688;2024-03-23T07:23:24;6.60;99.90
42245;DHT22;27912;51.828;5.688;2024-03-23T07:25:59;6.60;99.90
42245;DHT22;27912;51.828;5.688;2024-03-23T07:28:25;6.60;99.90
42245;DHT22;27912;51.828;5.688;2024-03-23T07:31:07;6.70;99.90
42245;DHT22;27912;51.828;5.688;2024-03-23T07:33:35;6.80;99.90
42245;DHT22;27912;51.828;5.688;2024-03-23T07:36:01;6.90;99.90
42245;DHT22;27912;51.828;5.688;2024-03-23T07:38:28;7.00;99.90
42245;DHT22;27912;51.828;5.688;2024-03-23T07:41:05;7.00;99.90
42245;DHT22;27912;51.828;5.688;2024-03-23T07:43:31;7.00;99.90
42245;DHT22;27912;51.828;5.688;2024-03-23T07:45:57;7.00;99.90
42245;DHT22;27912;51.828;5.688;2024-03-23T07:48:23;7.10;99.90
42245;DHT22;27912;51.828;5.688;2024-03-23T07:51:02;7.10;99.90
42245;DHT22;27912;51.828;5.688;2024-03-23T07:53:28;7.10;99.90
42245;DHT22;27912;51.828;5.688;2024-03-23T07:55:58;7.20;99.90
42245;DHT22;27912;51.828;5.688;2024-03-23T07:58:25;7.20;99.90
42245;DHT22;27912;51.828;5.688;2024-03-23T08:00:52;7.40;99.90
42245;DHT22;27912;51.828;5.688;2024-03-23T08:03:18;7.50;99.90
42245;DHT22;27912;51.828;5.688;2024-03-23T08:05:43;7.60;99.90
42245;DHT22;27912;51.828;5.688;2024-03-23T08:08:09;7.70;99.90
42245;DHT22;27912;51.828;5.688;2024-03-23T08:10:35;7.90;99.90
42245;DHT22;27912;51.828;5.688;2024-03-23T08:13:00;8.10;99.90
42245;DHT22;27912;51.828;5.688;2024-03-23T08:15:26;8.20;99.90
42245;DHT22;27912;51.828;5.688;2024-03-23T08:17:51;8.30;99.90
42245;DHT22;27912;51.828;5.688;2024-03-23T08:20:17;8.40;99.90
42245;DHT22;27912;51.828;5.688;2024-03-23T08:22:42;8.40;99.90
42245;DHT22;27912;51.828;5.688;2024-03-23T08:25:08;8.40;99.90
42245;DHT22;27912;51.828;5.688;2024-03-23T08:27:33;8.30;99.90
42245;DHT22;27912;51.828;5.688;2024-03-23T08:29:59;8.30;99.90
42245;DHT22;27912;51.828;5.688;2024-03-23T08:32:25;8.20;99.90
42245;DHT22;27912;51.828;5.688;2024-03-23T08:34:50;8.10;99.90
42245;DHT22;27912;51.828;5.688;2024-03-23T08:37:16;8.00;99.90
42245;DHT22;27912;51.828;5.688;2024-03-23T08:39:44;7.90;99.90
42245;DHT22;27912;51.828;5.688;2024-03-23T08:42:10;7.90;99.90
42245;DHT22;27912;51.828;5.688;2024-03-23T08:44:35;7.80;99.90
42245;DHT22;27912;51.828;5.688;2024-03-23T08:47:01;7.80;99.90
42245;DHT22;27912;51.828;5.688;2024-03-23T08:49:27;7.90;99.90
42245;DHT22;27912;51.828;5.688;2024-03-23T08:51:53;7.90;99.90
42245;DHT22;27912;51.828;5.688;2024-03-23T08:54:20;7.90;99.90
42245;DHT22;27912;51.828;5.688;2024-03-23T08:56:46;7.80;99.90
42245;DHT22;27912;51.828;5.688;2024-03-23T08:59:11;7.90;99.90
42245;DHT22;27912;51.828;5.688;2024-03-23T09:01:37;7.90;99.90
42245;DHT22;27912;51.828;5.688;2024-03-23T09:04:03;7.80;99.90
42245;DHT22;27912;51.828;5.688;2024-03-23T09:06:29;7.70;99.90
42245;DHT22;27912;51.828;5.688;2024-03-23T09:08:55;7.60;99.90
42245;DHT22;27912;51.828;5.688;2024-03-23T09:11:21;7.70;99.90
42245;DHT22;27912;51.828;5.688;2024-03-23T09:13:46;7.60;99.90
42245;DHT22;27912;51.828;5.688;2024-03-23T09:16:12;7.70;99.90
42245;DHT22;27912;51.828;5.688;2024-03-23T09:18:38;7.70;99.90
42245;DHT22;27912;51.828;5.688;2024-03-23T09:21:10;7.70;99.90
42245;DHT22;27912;51.828;5.688;2024-03-23T09:23:36;7.70;99.90
42245;DHT22;27912;51.828;5.688;2024-03-23T09:26:05;7.70;99.90
42245;DHT22;27912;51.828;5.688;2024-03-23T09:28:33;7.80;99.90
42245;DHT22;27912;51.828;5.688;2024-03-23T09:31:05;7.80;99.90
42245;DHT22;27912;51.828;5.688;2024-03-23T09:33:32;7.90;99.90
42245;DHT22;27912;51.828;5.688;2024-03-23T09:35:58;8.10;99.90
42245;DHT22;27912;51.828;5.688;2024-03-23T09:38:28;8.00;99.90
42245;DHT22;27912;51.828;5.688;2024-03-23T09:40:53;7.50;99.90
42245;DHT22;27912;51.828;5.688;2024-03-23T09:43:19;6.70;99.90
42245;DHT22;27912;51.828;5.688;2024-03-23T09:45:46;6.20;99.90
42245;DHT22;27912;51.828;5.688;2024-03-23T09:48:12;5.90;99.90
42245;DHT22;27912;51.828;5.688;2024-03-23T09:50:42;5.60;99.90
42245;DHT22;27912;51.828;5.688;2024-03-23T09:53:09;5.60;99.90
42245;DHT22;27912;51.828;5.688;2024-03-23T09:55:37;5.90;99.90
42245;DHT22;27912;51.828;5.688;2024-03-23T09:58:03;6.10;99.90
42245;DHT22;27912;51.828;5.688;2024-03-23T10:00:33;6.40;99.90
42245;DHT22;27912;51.828;5.688;2024-03-23T10:03:02;6.50;99.90
42245;DHT22;27912;51.828;5.688;2024-03-23T10:05:28;6.70;99.90
42245;DHT22;27912;51.828;5.688;2024-03-23T10:07:54;6.90;99.90
42245;DHT22;27912;51.828;5.688;2024-03-23T10:10:20;6.80;99.90
42245;DHT22;27912;51.828;5.688;2024-03-23T10:12:50;6.90;99.90
42245;DHT22;27912;51.828;5.688;2024-03-23T10:15:20;7.00;99.90
42245;DHT22;27912;51.828;5.688;2024-03-23T10:17:46;7.30;99.90
42245;DHT22;27912;51.828;5.688;2024-03-23T10:20:12;7.70;99.90
42245;DHT22;27912;51.828;5.688;2024-03-23T10:22:38;8.10;99.90
42245;DHT22;27912;51.828;5.688;2024-03-23T10:25:13;8.40;99.90
42245;DHT22;27912;51.828;5.688;2024-03-23T10:27:39;8.20;99.90
42245;DHT22;27912;51.828;5.688;2024-03-23T10:32:34;7.40;99.90
42245;DHT22;27912;51.828;5.688;2024-03-23T10:35:19;7.30;99.90
42245;DHT22;27912;51.828;5.688;2024-03-23T10:37:47;7.20;99.90
42245;DHT22;27912;51.828;5.688;2024-03-23T10:40:15;7.30;99.90
42245;DHT22;27912;51.828;5.688;2024-03-23T10:42:41;7.50;99.90
42245;DHT22;27912;51.828;5.688;2024-03-23T10:45:07;7.70;99.90
42245;DHT22;27912;51.828;5.688;2024-03-23T10:47:37;7.90;99.90
42245;DHT22;27912;51.828;5.688;2024-03-23T10:50:06;8.30;99.90
42245;DHT22;27912;51.828;5.688;2024-03-23T10:52:35;8.70;99.90
42245;DHT22;27912;51.828;5.688;2024-03-23T10:55:03;9.10;99.90
42245;DHT22;27912;51.828;5.688;2024-03-23T10:57:42;9.20;99.90
42245;DHT22;27912;51.828;5.688;2024-03-23T11:00:10;9.30;99.90
42245;DHT22;27912;51.828;5.688;2024-03-23T11:02:39;9.30;99.90
42245;DHT22;27912;51.828;5.688;2024-03-23T11:05:28;9.40;99.90
42245;DHT22;27912;51.828;5.688;2024-03-23T11:07:54;9.80;99.90
42245;DHT22;27912;51.828;5.688;2024-03-23T11:10:30;9.90;99.90
42245;DHT22;27912;51.828;5.688;2024-03-23T11:12:57;10.00;99.90
42245;DHT22;27912;51.828;5.688;2024-03-23T11:15:22;9.90;99.90
42245;DHT22;27912;51.828;5.688;2024-03-23T11:18:04;9.70;99.90
42245;DHT22;27912;51.828;5.688;2024-03-23T11:20:35;9.70;99.90
42245;DHT22;27912;51.828;5.688;2024-03-23T11:23:01;9.80;99.90
42245;DHT22;27912;51.828;5.688;2024-03-23T11:25:27;9.80;99.90
42245;DHT22;27912;51.828;5.688;2024-03-23T11:27:56;9.70;99.90
42245;DHT22;27912;51.828;5.688;2024-03-23T11:30:23;9.60;99.90
42245;DHT22;27912;51.828;5.688;2024-03-23T11:32:54;9.20;99.90
42245;DHT22;27912;51.828;5.688;2024-03-23T11:35:33;8.90;99.90
42245;DHT22;27912;51.828;5.688;2024-03-23T11:40:33;7.60;99.90
42245;DHT22;27912;51.828;5.688;2024-03-23T11:43:01;7.30;99.90
42245;DHT22;27912;51.828;5.688;2024-03-23T11:45:27;6.90;99.90
42245;DHT22;27912;51.828;5.688;2024-03-23T11:48:08;6.30;99.90
42245;DHT22;27912;51.828;5.688;2024-03-23T11:50:37;5.90;99.90
42245;DHT22;27912;51.828;5.688;2024-03-23T11:55:52;6.00;99.90
42245;DHT22;27912;51.828;5.688;2024-03-23T11:58:19;6.10;99.90
42245;DHT22;27912;51.828;5.688;2024-03-23T12:00:57;6.30;99.90
42245;DHT22;27912;51.828;5.688;2024-03-23T12:03:23;6.40;99.90
42245;DHT22;27912;51.828;5.688;2024-03-23T12:05:54;6.50;99.90
42245;DHT22;27912;51.828;5.688;2024-03-23T12:08:28;6.60;99.90
42245;DHT22;27912;51.828;5.688;2024-03-23T12:11:16;6.70;99.90
42245;DHT22;27912;51.828;5.688;2024-03-23T12:13:45;6.90;99.90
42245;DHT22;27912;51.828;5.688;2024-03-23T12:16:18;7.20;99.90
42245;DHT22;27912;51.828;5.688;2024-03-23T12:18:47;7.40;99.90
42245;DHT22;27912;51.828;5.688;2024-03-23T12:21:13;7.60;99.90
42245;DHT22;27912;51.828;5.688;2024-03-23T12:23:39;7.70;99.90
42245;DHT22;27912;51.828;5.688;2024-03-23T12:26:05;7.70;99.90
42245;DHT22;27912;51.828;5.688;2024-03-23T12:28:32;7.50;99.90
42245;DHT22;27912;51.828;5.688;2024-03-23T12:30:57;7.60;99.90
42245;DHT22;27912;51.828;5.688;2024-03-23T12:33:23;7.80;99.90
42245;DHT22;27912;51.828;5.688;2024-03-23T12:35:50;8.10;99.90
42245;DHT22;27912;51.828;5.688;2024-03-23T12:38:16;8.30;99.90
42245;DHT22;27912;51.828;5.688;2024-03-23T12:40:41;8.50;99.90
42245;DHT22;27912;51.828;5.688;2024-03-23T12:43:07;8.70;99.90
42245;DHT22;27912;51.828;5.688;2024-03-23T12:45:33;8.90;99.90
42245;DHT22;27912;51.828;5.688;2024-03-23T12:47:58;9.10;99.90
42245;DHT22;27912;51.828;5.688;2024-03-23T12:50:24;9.30;99.90
42245;DHT22;27912;51.828;5.688;2024-03-23T12:52:50;9.30;99.90
42245;DHT22;27912;51.828;5.688;2024-03-23T12:55:15;9.30;99.90
42245;DHT22;27912;51.828;5.688;2024-03-23T12:57:41;9.20;99.90
42245;DHT22;27912;51.828;5.688;2024-03-23T13:00:07;9.10;99.90
42245;DHT22;27912;51.828;5.688;2024-03-23T13:02:37;9.00;99.90
42245;DHT22;27912;51.828;5.688;2024-03-23T13:05:04;9.10;99.90
42245;DHT22;27912;51.828;5.688;2024-03-23T13:07:30;9.30;99.90
42245;DHT22;27912;51.828;5.688;2024-03-23T13:09:56;9.50;99.90
42245;DHT22;27912;51.828;5.688;2024-03-23T13:12:22;9.60;99.90
42245;DHT22;27912;51.828;5.688;2024-03-23T13:14:48;9.50;99.90
42245;DHT22;27912;51.828;5.688;2024-03-23T13:17:14;9.40;99.90
42245;DHT22;27912;51.828;5.688;2024-03-23T13:19:40;9.20;99.90
42245;DHT22;27912;51.828;5.688;2024-03-23T13:22:06;9.00;99.90
42245;DHT22;27912;51.828;5.688;2024-03-23T13:24:32;8.70;99.90
42245;DHT22;27912;51.828;5.688;2024-03-23T13:26:58;8.50;99.90
42245;DHT22;27912;51.828;5.688;2024-03-23T13:29:24;8.50;99.90
42245;DHT22;27912;51.828;5.688;2024-03-23T13:31:52;8.40;99.90
42245;DHT22;27912;51.828;5.688;2024-03-23T13:34:18;8.40;99.90
42245;DHT22;27912;51.828;5.688;2024-03-23T13:36:44;8.40;99.90
42245;DHT22;27912;51.828;5.688;2024-03-23T13:39:11;8.50;99.90
42245;DHT22;27912;51.828;5.688;2024-03-23T13:41:44;8.40;99.90
42245;DHT22;27912;51.828;5.688;2024-03-23T13:44:11;8.40;99.90
42245;DHT22;27912;51.828;5.688;2024-03-23T13:46:37;8.30;99.90
42245;DHT22;27912;51.828;5.688;2024-03-23T13:49:03;8.20;99.90
42245;DHT22;27912;51.828;5.688;2024-03-23T13:51:28;8.20;99.90
42245;DHT22;27912;51.828;5.688;2024-03-23T13:53:54;8.20;99.90
42245;DHT22;27912;51.828;5.688;2024-03-23T13:56:22;8.50;99.90
42245;DHT22;27912;51.828;5.688;2024-03-23T13:58:47;8.60;99.90
42245;DHT22;27912;51.828;5.688;2024-03-23T14:01:17;8.70;99.90
42245;DHT22;27912;51.828;5.688;2024-03-23T14:03:43;8.90;99.90
42245;DHT22;27912;51.828;5.688;2024-03-23T14:06:09;9.00;99.90
42245;DHT22;27912;51.828;5.688;2024-03-23T14:08:36;9.20;99.90
42245;DHT22;27912;51.828;5.688;2024-03-23T14:11:07;9.40;99.90
42245;DHT22;27912;51.828;5.688;2024-03-23T14:13:34;9.40;99.90
42245;DHT22;27912;51.828;5.688;2024-03-23T14:16:00;9.30;99.90
42245;DHT22;27912;51.828;5.688;2024-03-23T14:18:25;9.30;99.90
42245;DHT22;27912;51.828;5.688;2024-03-23T14:21:00;9.30;99.90
42245;DHT22;27912;51.828;5.688;2024-03-23T14:23:26;9.20;99.90
42245;DHT22;27912;51.828;5.688;2024-03-23T14:25:53;9.10;99.90
42245;DHT22;27912;51.828;5.688;2024-03-23T14:28:20;8.90;99.90
42245;DHT22;27912;51.828;5.688;2024-03-23T14:30:45;8.80;99.90
42245;DHT22;27912;51.828;5.688;2024-03-23T14:33:11;8.60;99.90
42245;DHT22;27912;51.828;5.688;2024-03-23T14:35:38;8.50;99.90
42245;DHT22;27912;51.828;5.688;2024-03-23T14:38:04;8.40;99.90
42245;DHT22;27912;51.828;5.688;2024-03-23T14:40:29;8.30;99.90
42245;DHT22;27912;51.828;5.688;2024-03-23T14:42:55;8.10;99.90
42245;DHT22;27912;51.828;5.688;2024-03-23T14:45:21;7.90;99.90
42245;DHT22;27912;51.828;5.688;2024-03-23T14:47:47;7.90;99.90
42245;DHT22;27912;51.828;5.688;2024-03-23T14:50:13;7.90;99.90
42245;DHT22;27912;51.828;5.688;2024-03-23T14:52:42;7.80;99.90
42245;DHT22;27912;51.828;5.688;2024-03-23T14:55:07;7.80;99.90
42245;DHT22;27912;51.828;5.688;2024-03-23T14:57:34;7.70;99.90
42245;DHT22;27912;51.828;5.688;2024-03-23T15:00:00;7.50;99.90
42245;DHT22;27912;51.828;5.688;2024-03-23T15:02:26;7.10;99.90
42245;DHT22;27912;51.828;5.688;2024-03-23T15:04:53;6.90;99.90
42245;DHT22;27912;51.828;5.688;2024-03-23T15:07:19;6.80;99.90
42245;DHT22;27912;51.828;5.688;2024-03-23T15:09:45;7.00;99.90
42245;DHT22;27912;51.828;5.688;2024-03-23T15:12:17;7.10;99.90
42245;DHT22;27912;51.828;5.688;2024-03-23T15:14:46;7.10;99.90
42245;DHT22;27912;51.828;5.688;2024-03-23T15:17:12;7.00;99.90
42245;DHT22;27912;51.828;5.688;2024-03-23T15:19:37;7.00;99.90
42245;DHT22;27912;51.828;5.688;2024-03-23T15:22:03;7.10;99.90
42245;DHT22;27912;51.828;5.688;2024-03-23T15:24:29;7.10;99.90
42245;DHT22;27912;51.828;5.688;2024-03-23T15:26:54;7.10;99.90
42245;DHT22;27912;51.828;5.688;2024-03-23T15:29:21;7.10;99.90
42245;DHT22;27912;51.828;5.688;2024-03-23T15:31:47;7.20;99.90
42245;DHT22;27912;51.828;5.688;2024-03-23T15:34:16;7.30;99.90
42245;DHT22;27912;51.828;5.688;2024-03-23T15:36:42;7.40;99.90
42245;DHT22;27912;51.828;5.688;2024-03-23T15:39:10;7.60;99.90
42245;DHT22;27912;51.828;5.688;2024-03-23T15:41:36;7.70;99.90
42245;DHT22;27912;51.828;5.688;2024-03-23T15:44:02;7.70;99.90
42245;DHT22;27912;51.828;5.688;2024-03-23T15:46:28;7.70;99.90
42245;DHT22;27912;51.828;5.688;2024-03-23T15:48:53;7.80;99.90
42245;DHT22;27912;51.828;5.688;2024-03-23T15:51:20;7.80;99.90
42245;DHT22;27912;51.828;5.688;2024-03-23T15:53:45;7.80;99.90
42245;DHT22;27912;51.828;5.688;2024-03-23T15:56:12;7.90;99.90
42245;DHT22;27912;51.828;5.688;2024-03-23T15:58:38;7.80;99.90
42245;DHT22;27912;51.828;5.688;2024-03-23T16:03:30;7.80;99.90
42245;DHT22;27912;51.828;5.688;2024-03-23T16:05:57;7.80;99.90
42245;DHT22;27912;51.828;5.688;2024-03-23T16:08:24;7.60;99.90
42245;DHT22;27912;51.828;5.688;2024-03-23T16:10:50;7.40;99.90
42245;DHT22;27912;51.828;5.688;2024-03-23T16:13:16;7.30;99.90
42245;DHT22;27912;51.828;5.688;2024-03-23T16:15:43;7.20;99.90
42245;DHT22;27912;51.828;5.688;2024-03-23T16:18:09;7.20;99.90
42245;DHT22;27912;51.828;5.688;2024-03-23T16:20:35;7.20;99.90
42245;DHT22;27912;51.828;5.688;2024-03-23T16:23:01;7.20;99.90
42245;DHT22;27912;51.828;5.688;2024-03-23T16:25:27;7.20;99.90
42245;DHT22;27912;51.828;5.688;2024-03-23T16:27:53;7.10;99.90
42245;DHT22;27912;51.828;5.688;2024-03-23T16:30:19;7.10;99.90
42245;DHT22;27912;51.828;5.688;2024-03-23T16:32:46;7.10;99.90
42245;DHT22;27912;51.828;5.688;2024-03-23T16:35:12;7.00;99.90
42245;DHT22;27912;51.828;5.688;2024-03-23T16:37:38;7.10;99.90
42245;DHT22;27912;51.828;5.688;2024-03-23T16:40:04;7.10;99.90
42245;DHT22;27912;51.828;5.688;2024-03-23T16:42:32;7.10;99.90
42245;DHT22;27912;51.828;5.688;2024-03-23T16:44:57;7.20;99.90
42245;DHT22;27912;51.828;5.688;2024-03-23T16:47:23;7.30;99.90